Time;durP1;ratioP1;P1;durP2;ratioP2;P2;SDS_P1;SDS_P2;PMS_P1;PMS_P2;Temp;Humidity;BMP_temperature;BMP_pressure;BME280_temperature;BME280_humidity;BME280_pressure;Samples;Min_cycle;Max_cycle;Signal;HPM_P1;HPM_P2
2023/09/03 00:01:59;;;;;;;23.30;20.23;;;20.50;94.20;;;;;;5054113;28;21045;-66
2023/09/03 00:04:25;;;;;;;21.10;18.90;;;20.40;94.10;;;;;;5054746;28;20954;-62
2023/09/03 00:06:52;;;;;;;23.00;18.33;;;20.40;94.20;;;;;;5054309;28;20850;-62
2023/09/03 00:09:19;;;;;;;21.23;18.70;;;20.40;94.20;;;;;;5053507;28;20483;-61
2023/09/03 00:11:45;;;;;;;22.67;18.90;;;20.30;94.20;;;;;;5053329;28;20465;-61
2023/09/03 00:14:12;;;;;;;19.90;17.80;;;20.30;94.10;;;;;;5053435;28;20453;-61
2023/09/03 00:16:39;;;;;;;20.53;18.40;;;20.30;94.10;;;;;;5053070;28;20446;-62
2023/09/03 00:19:07;;;;;;;22.00;19.73;;;20.20;94.10;;;;;;5053136;28;20489;-61
2023/09/03 00:21:34;;;;;;;21.30;19.17;;;20.20;94.10;;;;;;5053766;28;20469;-61
2023/09/03 00:24:00;;;;;;;20.40;18.30;;;20.20;94.10;;;;;;5053422;28;20450;-62
2023/09/03 00:26:27;;;;;;;19.50;17.40;;;20.20;94.20;;;;;;5053368;28;20445;-61
2023/09/03 00:28:54;;;;;;;20.87;18.57;;;20.10;94.10;;;;;;5052882;28;20928;-61
2023/09/03 00:31:23;;;;;;;19.13;17.33;;;20.10;94.10;;;;;;5053279;28;20461;-61
2023/09/03 00:33:50;;;;;;;21.37;17.27;;;20.10;94.10;;;;;;5053124;28;20845;-61
2023/09/03 00:36:18;;;;;;;18.90;16.20;;;20.10;94.10;;;;;;5053265;28;20801;-61
2023/09/03 00:38:49;;;;;;;18.27;16.47;;;20.00;93.90;;;;;;5053118;28;20865;-62
2023/09/03 00:41:16;;;;;;;17.73;16.00;;;20.00;93.90;;;;;;5052837;28;20929;-61
2023/09/03 00:43:43;;;;;;;20.07;16.90;;;20.00;94.00;;;;;;5053192;28;20820;-61
2023/09/03 00:46:10;;;;;;;19.70;17.20;;;20.00;93.90;;;;;;5053119;28;20453;-61
2023/09/03 00:48:39;;;;;;;20.50;18.30;;;19.90;93.90;;;;;;5053146;28;20449;-61
2023/09/03 00:51:08;;;;;;;18.07;16.13;;;19.90;93.90;;;;;;5053152;28;20464;-61
2023/09/03 00:53:37;;;;;;;19.30;17.20;;;19.90;93.90;;;;;;5053830;28;20453;-61
2023/09/03 00:56:05;;;;;;;17.70;16.00;;;19.80;93.90;;;;;;5052975;28;20457;-62
2023/09/03 00:58:31;;;;;;;20.93;16.63;;;19.80;93.90;;;;;;5052863;28;20488;-61
2023/09/03 01:00:58;;;;;;;19.00;17.20;;;19.70;93.90;;;;;;5052898;28;20785;-61
2023/09/03 01:03:26;;;;;;;17.40;15.60;;;19.70;94.00;;;;;;5052784;28;20835;-62
2023/09/03 01:05:53;;;;;;;17.37;15.57;;;19.70;94.10;;;;;;5052985;28;20810;-61
2023/09/03 01:08:20;;;;;;;18.07;16.30;;;19.60;94.10;;;;;;5053010;28;20464;-61
2023/09/03 01:10:58;;;;;;;19.80;16.20;;;19.60;94.10;;;;;;5053166;28;20947;-62
2023/09/03 01:13:31;;;;;;;17.67;15.87;;;19.60;94.30;;;;;;5052796;28;20465;-61
2023/09/03 01:16:01;;;;;;;17.97;16.17;;;19.60;94.30;;;;;;5053099;28;20441;-62
2023/09/03 01:18:29;;;;;;;17.70;15.90;;;19.50;94.10;;;;;;5053039;28;20485;-61
2023/09/03 01:21:14;;;;;;;17.20;15.40;;;19.50;94.10;;;;;;5052355;28;20918;-61
2023/09/03 01:23:46;;;;;;;20.00;17.00;;;19.50;94.10;;;;;;5052767;28;20429;-61
2023/09/03 01:26:27;;;;;;;20.73;18.47;;;19.40;94.10;;;;;;5052835;28;20811;-61
2023/09/03 01:28:56;;;;;;;22.20;19.80;;;19.40;94.30;;;;;;5052634;28;20441;-61
2023/09/03 01:31:24;;;;;;;24.20;21.70;;;19.40;94.50;;;;;;5053802;28;20466;-61
2023/09/03 01:33:51;;;;;;;23.97;21.40;;;19.40;94.60;;;;;;5056219;28;20454;-61
2023/09/03 01:36:19;;;;;;;19.50;17.37;;;19.40;94.60;;;;;;5055944;28;20976;-61
2023/09/03 01:38:46;;;;;;;21.30;18.03;;;19.30;94.50;;;;;;5056132;28;20484;-61
2023/09/03 01:41:13;;;;;;;18.40;16.40;;;19.30;94.50;;;;;;5056171;28;20433;-61
2023/09/03 01:43:41;;;;;;;24.63;18.87;;;19.20;94.40;;;;;;5056155;28;20484;-61
2023/09/03 01:46:13;;;;;;;20.90;18.30;;;19.20;94.50;;;;;;5055755;28;20974;-61
2023/09/03 01:48:56;;;;;;;20.50;18.37;;;19.20;94.50;;;;;;5055742;28;20962;-61
2023/09/03 01:51:29;;;;;;;25.00;19.63;;;19.10;94.50;;;;;;5056028;28;20465;-61
2023/09/03 01:54:02;;;;;;;22.23;19.67;;;19.10;94.60;;;;;;5056045;28;20430;-61
2023/09/03 01:56:32;;;;;;;21.67;18.77;;;19.10;94.60;;;;;;5055953;28;20467;-61
2023/09/03 01:59:07;;;;;;;25.23;21.30;;;19.10;94.70;;;;;;5056193;28;20485;-61
2023/09/03 02:01:36;;;;;;;23.10;19.50;;;19.10;94.90;;;;;;5055763;28;20457;-61
2023/09/03 02:04:03;;;;;;;23.40;19.23;;;19.10;95.00;;;;;;5055722;28;20448;-60
2023/09/03 02:06:29;;;;;;;26.40;19.33;;;19.10;95.10;;;;;;5056597;28;20441;-61
2023/09/03 02:08:56;;;;;;;22.03;19.43;;;19.00;94.90;;;;;;5055460;28;20437;-61
2023/09/03 02:11:23;;;;;;;22.40;19.20;;;19.00;94.90;;;;;;5055225;28;20971;-60
2023/09/03 02:13:49;;;;;;;22.23;18.97;;;19.00;95.00;;;;;;5055657;28;20446;-60
2023/09/03 02:16:16;;;;;;;23.13;20.30;;;18.90;95.00;;;;;;5055580;28;20461;-60
2023/09/03 02:18:44;;;;;;;21.40;19.20;;;18.90;95.00;;;;;;5055327;28;20550;-60
2023/09/03 02:21:10;;;;;;;27.73;20.40;;;18.90;95.20;;;;;;5055169;28;20453;-60
2023/09/03 02:23:37;;;;;;;23.57;20.07;;;18.90;95.30;;;;;;5055509;28;20422;-60
2023/09/03 02:26:04;;;;;;;23.00;19.63;;;18.90;95.40;;;;;;5055441;28;20521;-60
2023/09/03 02:28:31;;;;;;;25.40;17.57;;;18.90;95.40;;;;;;5055306;28;20485;-60
2023/09/03 02:30:57;;;;;;;18.50;16.70;;;18.80;95.30;;;;;;5055256;28;20449;-61
2023/09/03 02:33:24;;;;;;;18.00;16.20;;;18.80;95.30;;;;;;5054724;28;21006;-60
2023/09/03 02:35:52;;;;;;;16.50;14.90;;;18.80;95.30;;;;;;5055173;28;20524;-60
2023/09/03 02:38:19;;;;;;;15.73;14.23;;;18.80;95.40;;;;;;5055054;28;20477;-60
2023/09/03 02:40:46;;;;;;;16.73;15.10;;;18.80;95.50;;;;;;5055106;28;20442;-61
2023/09/03 02:43:13;;;;;;;14.97;13.57;;;18.80;95.60;;;;;;5054275;28;20461;-61
2023/09/03 02:45:39;;;;;;;17.27;15.27;;;18.70;95.50;;;;;;5055013;28;20857;-61
2023/09/03 02:48:07;;;;;;;18.97;17.17;;;18.70;95.50;;;;;;5054410;28;20992;-61
2023/09/03 02:50:35;;;;;;;19.07;17.13;;;18.70;95.60;;;;;;5054893;28;20796;-61
2023/09/03 02:53:04;;;;;;;19.00;16.73;;;18.70;95.60;;;;;;5054824;28;20472;-61
2023/09/03 02:55:31;;;;;;;18.10;16.20;;;18.70;95.70;;;;;;5054866;28;20445;-61
2023/09/03 02:57:57;;;;;;;17.40;15.47;;;18.70;95.60;;;;;;5054652;28;20472;-61
2023/09/03 03:00:24;;;;;;;19.87;17.77;;;18.70;95.70;;;;;;5054777;28;20445;-61
2023/09/03 03:02:52;;;;;;;20.10;18.00;;;18.70;95.70;;;;;;5054654;28;20470;-61
2023/09/03 03:05:18;;;;;;;18.73;16.50;;;18.70;95.90;;;;;;5054640;28;20441;-61
2023/09/03 03:07:45;;;;;;;18.07;16.20;;;18.60;95.90;;;;;;5054346;28;20453;-61
2023/09/03 03:10:13;;;;;;;19.50;17.10;;;18.60;95.90;;;;;;5054485;28;20482;-61
2023/09/03 03:12:44;;;;;;;17.17;15.40;;;18.60;95.80;;;;;;5054514;28;20466;-61
2023/09/03 03:15:10;;;;;;;18.13;16.33;;;18.60;95.90;;;;;;5054488;28;20461;-61
2023/09/03 03:17:37;;;;;;;16.07;14.53;;;18.50;95.90;;;;;;5054371;28;20511;-61
2023/09/03 03:20:05;;;;;;;18.20;15.67;;;18.50;96.00;;;;;;5054299;28;20473;-61
2023/09/03 03:22:31;;;;;;;18.10;16.20;;;18.50;95.90;;;;;;5053986;28;20469;-61
2023/09/03 03:24:58;;;;;;;20.07;17.87;;;18.50;95.80;;;;;;5054166;28;20449;-62
2023/09/03 03:27:26;;;;;;;20.57;17.83;;;18.50;95.90;;;;;;5054317;28;20452;-61
2023/09/03 03:29:53;;;;;;;20.20;17.20;;;18.50;95.90;;;;;;5054172;28;20446;-61
2023/09/03 03:32:20;;;;;;;19.30;17.23;;;18.50;95.90;;;;;;5053905;28;20461;-61
2023/09/03 03:34:46;;;;;;;18.50;16.53;;;18.50;95.80;;;;;;5054072;28;20476;-61
2023/09/03 03:37:13;;;;;;;20.43;17.10;;;18.50;95.80;;;;;;5054138;28;20441;-61
2023/09/03 03:39:40;;;;;;;20.47;17.50;;;18.50;95.80;;;;;;5054000;28;20481;-61
2023/09/03 03:42:07;;;;;;;18.30;16.30;;;18.50;95.90;;;;;;5054222;28;20464;-61
2023/09/03 03:44:35;;;;;;;15.13;13.63;;;18.40;95.80;;;;;;5054009;28;20450;-61
2023/09/03 03:47:01;;;;;;;17.80;14.50;;;18.40;95.70;;;;;;5054070;28;20456;-61
2023/09/03 03:49:28;;;;;;;19.70;15.20;;;18.30;95.60;;;;;;5053700;28;20927;-61
2023/09/03 03:51:55;;;;;;;17.63;15.23;;;18.30;95.70;;;;;;5053836;28;20806;-61
2023/09/03 03:54:21;;;;;;;17.47;14.77;;;18.30;95.70;;;;;;5053234;28;20449;-61
2023/09/03 03:56:48;;;;;;;15.43;13.80;;;18.20;95.80;;;;;;5053353;28;20442;-61
2023/09/03 03:59:15;;;;;;;12.80;11.60;;;18.20;96.20;;;;;;5053709;28;20888;-61
2023/09/03 04:01:43;;;;;;;12.60;11.50;;;18.20;95.90;;;;;;5053499;28;20469;-62
2023/09/03 04:04:09;;;;;;;12.90;11.60;;;18.20;95.90;;;;;;5053625;28;20450;-62
2023/09/03 04:06:36;;;;;;;15.67;14.00;;;18.10;96.00;;;;;;5053757;28;20437;-61
2023/09/03 04:09:03;;;;;;;15.10;13.60;;;18.10;96.10;;;;;;5053584;28;20450;-61
2023/09/03 04:11:29;;;;;;;15.00;13.50;;;18.10;96.10;;;;;;5053517;28;20527;-61
2023/09/03 04:13:56;;;;;;;15.63;14.07;;;18.10;96.20;;;;;;5053532;28;20457;-61
2023/09/03 04:16:23;;;;;;;16.30;14.60;;;18.10;96.30;;;;;;5053173;28;20481;-61
2023/09/03 04:18:51;;;;;;;15.23;13.83;;;18.10;96.40;;;;;;5053430;28;20488;-60
2023/09/03 04:21:18;;;;;;;15.00;13.50;;;18.10;96.40;;;;;;5053274;28;20453;-61
2023/09/03 04:23:45;;;;;;;17.03;14.40;;;18.10;96.40;;;;;;5053596;28;20426;-61
2023/09/03 04:26:13;;;;;;;16.20;13.80;;;18.10;96.60;;;;;;5053485;28;20442;-61
2023/09/03 04:28:40;;;;;;;16.40;14.80;;;18.10;96.40;;;;;;5053026;28;20936;-61
2023/09/03 04:31:08;;;;;;;17.13;15.53;;;18.10;96.50;;;;;;5052910;28;20515;-61
2023/09/03 04:33:35;;;;;;;17.40;15.70;;;18.10;96.50;;;;;;5053216;28;20446;-61
2023/09/03 04:36:04;;;;;;;18.67;16.77;;;18.10;96.50;;;;;;5053719;28;20473;-61
2023/09/03 04:38:31;;;;;;;17.77;15.87;;;18.10;96.60;;;;;;5053112;28;20441;-61
2023/09/03 04:41:02;;;;;;;20.10;18.10;;;18.10;96.60;;;;;;5053088;28;20448;-61
2023/09/03 04:43:29;;;;;;;19.00;16.87;;;18.10;96.50;;;;;;5052823;28;20430;-61
2023/09/03 04:45:56;;;;;;;22.33;17.33;;;18.00;96.50;;;;;;5052872;28;20857;-61
2023/09/03 04:48:23;;;;;;;17.40;15.60;;;18.00;96.50;;;;;;5053191;28;20797;-61
2023/09/03 04:50:50;;;;;;;16.70;15.10;;;18.00;96.60;;;;;;5053041;28;20445;-61
2023/09/03 04:53:18;;;;;;;15.83;14.30;;;18.00;96.50;;;;;;5052986;28;20466;-61
2023/09/03 04:55:45;;;;;;;19.20;17.27;;;18.00;96.50;;;;;;5053056;28;20445;-61
2023/09/03 04:58:11;;;;;;;18.00;15.93;;;18.00;96.50;;;;;;5053011;28;20442;-61
2023/09/03 05:00:38;;;;;;;26.70;18.80;;;18.00;96.50;;;;;;5052914;28;20485;-61
2023/09/03 05:03:05;;;;;;;23.80;20.07;;;18.00;96.60;;;;;;5052755;28;20462;-61
2023/09/03 05:05:38;;;;;;;24.00;20.67;;;18.00;96.80;;;;;;5054148;28;20947;-61
2023/09/03 05:08:05;;;;;;;23.50;19.87;;;18.00;97.00;;;;;;5056919;28;20480;-61
2023/09/03 05:10:33;;;;;;;24.50;20.53;;;18.00;97.20;;;;;;5056751;28;20441;-61
2023/09/03 05:13:00;;;;;;;21.50;19.20;;;18.00;97.20;;;;;;5056746;28;20461;-61
2023/09/03 05:15:27;;;;;;;21.53;19.30;;;18.00;97.30;;;;;;5056852;28;20446;-61
2023/09/03 05:17:53;;;;;;;21.30;19.10;;;18.00;97.40;;;;;;5056735;28;20445;-61
2023/09/03 05:20:20;;;;;;;20.60;18.53;;;18.00;97.30;;;;;;5056529;28;20485;-61
2023/09/03 05:22:47;;;;;;;20.93;18.87;;;18.10;97.40;;;;;;5056117;28;20476;-61
2023/09/03 05:25:13;;;;;;;27.10;18.60;;;18.00;97.30;;;;;;5056543;28;20445;-61
2023/09/03 05:27:41;;;;;;;21.67;19.67;;;18.10;97.40;;;;;;5056490;28;20442;-61
2023/09/03 05:30:09;;;;;;;20.60;18.50;;;18.10;97.50;;;;;;5056449;28;20437;-61
2023/09/03 05:32:36;;;;;;;19.20;17.37;;;18.10;97.50;;;;;;5056245;28;20469;-61
2023/09/03 05:35:02;;;;;;;21.33;19.20;;;18.10;97.60;;;;;;5056380;28;20445;-61
2023/09/03 05:37:29;;;;;;;20.40;18.37;;;18.10;97.60;;;;;;5056292;28;20499;-61
2023/09/03 05:39:56;;;;;;;22.60;19.80;;;18.10;97.70;;;;;;5056108;28;20485;-61
2023/09/03 05:42:22;;;;;;;21.40;19.17;;;18.20;97.80;;;;;;5056179;28;20461;-61
2023/09/03 05:44:51;;;;;;;22.70;20.43;;;18.20;98.00;;;;;;5056161;28;20445;-61
2023/09/03 05:47:18;;;;;;;21.83;19.63;;;18.20;98.10;;;;;;5055741;28;20511;-61
2023/09/03 05:49:46;;;;;;;22.30;20.10;;;18.30;98.10;;;;;;5056003;28;20433;-61
2023/09/03 05:52:12;;;;;;;21.33;19.23;;;18.30;98.10;;;;;;5055995;28;20496;-61
2023/09/03 05:54:39;;;;;;;21.37;19.30;;;18.30;98.00;;;;;;5055714;28;20951;-61
2023/09/03 05:57:06;;;;;;;20.37;18.37;;;18.40;98.00;;;;;;5055989;28;20774;-61
2023/09/03 05:59:32;;;;;;;21.57;19.47;;;18.50;97.90;;;;;;5055830;28;20524;-61
2023/09/03 06:02:00;;;;;;;21.13;18.90;;;18.60;97.90;;;;;;5055708;28;20552;-61
2023/09/03 06:04:27;;;;;;;21.17;19.13;;;18.60;97.80;;;;;;5055843;28;20449;-61
2023/09/03 06:06:54;;;;;;;21.60;19.43;;;18.60;97.70;;;;;;5055749;28;20448;-61
2023/09/03 06:09:20;;;;;;;22.80;20.57;;;18.70;97.80;;;;;;5055509;28;20442;-61
2023/09/03 06:11:47;;;;;;;23.47;21.00;;;18.70;97.80;;;;;;5055634;28;20473;-61
2023/09/03 06:14:14;;;;;;;24.50;21.87;;;18.80;97.90;;;;;;5055603;28;20480;-61
2023/09/03 06:16:41;;;;;;;24.20;20.97;;;18.80;98.30;;;;;;5054637;28;20817;-61
2023/09/03 06:19:09;;;;;;;24.90;22.40;;;18.90;97.90;;;;;;5055448;28;20488;-61
2023/09/03 06:21:35;;;;;;;24.30;21.70;;;18.90;98.00;;;;;;5055222;28;20469;-61
2023/09/03 06:24:02;;;;;;;24.57;22.17;;;19.00;98.00;;;;;;5055186;28;20971;-61
2023/09/03 06:26:29;;;;;;;24.97;21.70;;;19.10;98.10;;;;;;5055440;28;20453;-61
2023/09/03 06:28:56;;;;;;;26.27;23.57;;;19.20;98.10;;;;;;5055284;28;20441;-61
2023/09/03 06:31:22;;;;;;;27.33;24.43;;;19.20;98.20;;;;;;5055058;28;20995;-61
2023/09/03 06:33:49;;;;;;;30.17;25.73;;;19.30;98.30;;;;;;5054912;28;20936;-61
2023/09/03 06:36:17;;;;;;;28.47;25.57;;;19.40;98.30;;;;;;5055008;28;20939;-61
2023/09/03 06:38:44;;;;;;;28.33;25.33;;;19.50;98.40;;;;;;5055245;28;20453;-61
2023/09/03 06:41:11;;;;;;;28.50;25.40;;;19.50;98.30;;;;;;5055106;28;20478;-61
2023/09/03 06:43:39;;;;;;;30.07;25.23;;;19.60;98.40;;;;;;5055300;28;20536;-61
2023/09/03 06:46:05;;;;;;;25.90;23.30;;;19.70;98.40;;;;;;5055224;28;20438;-61
2023/09/03 06:48:32;;;;;;;28.60;25.60;;;19.80;98.40;;;;;;5055291;28;20442;-61
2023/09/03 06:50:59;;;;;;;29.23;24.97;;;20.00;98.20;;;;;;5055043;28;20447;-61
2023/09/03 06:53:27;;;;;;;22.70;20.40;;;20.10;98.10;;;;;;5055195;28;20465;-61
2023/09/03 06:55:53;;;;;;;28.40;25.40;;;20.20;98.00;;;;;;5054841;28;20940;-61
2023/09/03 06:58:20;;;;;;;26.47;23.57;;;20.30;97.90;;;;;;5055225;28;20817;-61
2023/09/03 07:00:47;;;;;;;29.10;25.17;;;20.40;97.90;;;;;;5064720;28;20499;-61
2023/09/03 07:03:14;;;;;;;27.27;24.47;;;20.60;97.80;;;;;;5074781;28;20499;-61
2023/09/03 07:05:41;;;;;;;28.07;24.97;;;20.70;97.70;;;;;;5074686;28;20449;-61
2023/09/03 07:08:08;;;;;;;30.83;27.53;;;20.80;97.50;;;;;;5074640;28;20498;-61
2023/09/03 07:10:36;;;;;;;36.03;28.47;;;20.90;97.40;;;;;;5074607;28;20452;-61
2023/09/03 07:13:03;;;;;;;27.13;24.30;;;21.00;97.30;;;;;;5074568;28;20530;-61
2023/09/03 07:15:30;;;;;;;35.83;28.47;;;21.20;97.20;;;;;;5074543;28;20455;-61
2023/09/03 07:17:56;;;;;;;36.97;26.23;;;21.30;97.30;;;;;;5074462;28;20452;-61
2023/09/03 07:20:23;;;;;;;30.20;27.03;;;21.40;96.80;;;;;;5074304;28;20483;-61
2023/09/03 07:22:50;;;;;;;30.03;26.73;;;21.50;96.60;;;;;;5073868;28;20464;-61
2023/09/03 07:25:16;;;;;;;27.97;24.27;;;21.60;96.30;;;;;;5074369;28;20433;-61
2023/09/03 07:27:44;;;;;;;24.27;21.67;;;21.70;96.00;;;;;;5074824;28;20445;-61
2023/09/03 07:30:12;;;;;;;20.70;18.50;;;21.80;95.70;;;;;;5073438;28;20433;-61
2023/09/03 07:32:39;;;;;;;28.37;25.40;;;21.90;95.40;;;;;;5074047;28;20496;-62
2023/09/03 07:35:06;;;;;;;27.77;24.77;;;22.00;95.10;;;;;;5074198;28;20441;-61
2023/09/03 07:37:33;;;;;;;28.13;25.10;;;22.10;94.90;;;;;;5074009;28;20445;-61
2023/09/03 07:40:00;;;;;;;29.70;26.60;;;22.20;94.60;;;;;;5073970;28;20483;-61
2023/09/03 07:42:27;;;;;;;28.13;25.10;;;22.30;94.30;;;;;;5073882;28;20468;-61
2023/09/03 07:44:55;;;;;;;28.57;24.70;;;22.40;94.20;;;;;;5075084;28;21018;-62
2023/09/03 07:47:22;;;;;;;29.40;26.20;;;22.50;94.10;;;;;;5076109;28;20453;-61
2023/09/03 07:49:49;;;;;;;23.77;21.40;;;22.60;94.00;;;;;;5074743;28;20441;-62
2023/09/03 07:52:16;;;;;;;27.57;24.63;;;22.60;93.70;;;;;;5073836;28;20463;-61
2023/09/03 07:54:42;;;;;;;23.10;20.70;;;22.80;93.60;;;;;;5073742;28;20454;-61
2023/09/03 07:57:10;;;;;;;23.90;21.60;;;22.80;93.40;;;;;;5073776;28;20880;-62
2023/09/03 07:59:36;;;;;;;26.37;23.50;;;22.90;93.20;;;;;;5073466;28;20472;-61
2023/09/03 08:02:05;;;;;;;30.67;27.67;;;23.00;93.10;;;;;;5073437;28;20465;-62
2023/09/03 08:04:31;;;;;;;25.53;22.93;;;23.20;93.20;;;;;;5073643;28;20472;-62
2023/09/03 08:06:58;;;;;;;25.27;22.77;;;23.20;93.10;;;;;;5073577;28;20445;-62
2023/09/03 08:09:25;;;;;;;27.77;24.97;;;23.30;92.80;;;;;;5073540;28;20444;-62
2023/09/03 08:11:52;;;;;;;27.90;24.70;;;23.50;92.70;;;;;;5073785;28;20488;-62
2023/09/03 08:14:18;;;;;;;22.30;20.10;;;23.60;92.70;;;;;;5073115;28;20498;-61
2023/09/03 08:16:45;;;;;;;23.17;20.73;;;23.70;92.40;;;;;;5073567;28;20444;-62
2023/09/03 08:19:13;;;;;;;22.83;20.53;;;23.80;92.00;;;;;;5073502;28;20444;-62
2023/09/03 08:21:40;;;;;;;21.80;19.63;;;23.90;91.70;;;;;;5073131;28;20499;-62
2023/09/03 08:24:09;;;;;;;26.50;24.00;;;24.10;91.40;;;;;;5073357;28;20457;-62
2023/09/03 08:26:36;;;;;;;23.00;20.57;;;24.30;91.00;;;;;;5073038;28;20449;-62
2023/09/03 08:29:02;;;;;;;23.20;20.90;;;24.50;90.60;;;;;;5073340;28;20444;-62
2023/09/03 08:31:29;;;;;;;22.70;20.37;;;24.60;90.20;;;;;;5073249;28;20468;-62
2023/09/03 08:33:56;;;;;;;18.80;17.03;;;24.70;90.20;;;;;;5073240;28;20441;-62
2023/09/03 08:36:24;;;;;;;23.73;21.37;;;24.90;90.00;;;;;;5073247;28;20436;-62
2023/09/03 08:38:51;;;;;;;23.43;20.20;;;25.10;89.20;;;;;;5073179;28;20498;-62
2023/09/03 08:41:19;;;;;;;21.63;19.43;;;25.20;88.90;;;;;;5075951;28;20472;-62
2023/09/03 08:43:48;;;;;;;21.43;19.17;;;25.40;88.20;;;;;;5077385;28;20440;-61
2023/09/03 08:46:19;;;;;;;20.83;18.83;;;25.60;87.80;;;;;;5077415;28;20463;-60
2023/09/03 08:48:48;;;;;;;23.87;20.73;;;25.80;87.10;;;;;;5075691;28;20472;-61
2023/09/03 08:51:15;;;;;;;29.20;26.30;;;25.90;86.40;;;;;;5077264;28;20472;-61
2023/09/03 08:53:44;;;;;;;20.87;18.77;;;26.00;85.60;;;;;;5077391;28;20445;-62
2023/09/03 08:56:12;;;;;;;21.43;18.40;;;26.10;84.50;;;;;;5077429;28;20515;-61
2023/09/03 08:58:39;;;;;;;16.97;15.33;;;26.20;83.60;;;;;;5077210;28;20459;-61
2023/09/03 09:01:08;;;;;;;21.10;15.20;;;26.30;82.10;;;;;;5077064;28;20511;-61
2023/09/03 09:03:36;;;;;;;18.13;16.20;;;26.40;80.90;;;;;;5077045;28;20511;-61
2023/09/03 09:06:05;;;;;;;14.27;12.87;;;26.50;80.00;;;;;;5077152;28;20455;-61
2023/09/03 09:08:32;;;;;;;14.93;13.50;;;26.60;78.20;;;;;;5077980;28;20452;-61
2023/09/03 09:11:05;;;;;;;14.93;13.53;;;26.80;77.30;;;;;;5076942;28;20444;-61
2023/09/03 09:13:35;;;;;;;14.83;13.33;;;26.90;76.70;;;;;;5076758;28;20428;-61
2023/09/03 09:16:02;;;;;;;13.87;12.47;;;27.00;76.60;;;;;;5076780;28;20435;-61
2023/09/03 09:18:29;;;;;;;11.00;9.90;;;27.20;74.20;;;;;;5076691;28;20814;-61
2023/09/03 09:21:00;;;;;;;10.17;9.17;;;27.30;71.30;;;;;;5076413;28;20480;-61
2023/09/03 09:23:28;;;;;;;12.10;10.90;;;27.50;70.80;;;;;;5076916;28;20510;-61
2023/09/03 09:25:56;;;;;;;13.30;12.00;;;27.70;71.00;;;;;;5076582;28;20476;-61
2023/09/03 09:28:25;;;;;;;13.77;11.70;;;27.90;70.60;;;;;;5076118;28;21003;-61
2023/09/03 09:30:53;;;;;;;13.83;11.43;;;28.10;69.60;;;;;;5076404;28;20462;-61
2023/09/03 09:33:20;;;;;;;8.50;7.77;;;28.20;66.80;;;;;;5076196;28;20925;-61
2023/09/03 09:35:47;;;;;;;10.77;9.77;;;28.30;64.30;;;;;;5076340;28;20448;-61
2023/09/03 09:38:14;;;;;;;12.17;10.80;;;28.40;63.60;;;;;;5076330;28;20440;-61
2023/09/03 09:40:41;;;;;;;7.53;6.27;;;28.50;63.10;;;;;;5076195;28;20484;-61
2023/09/03 09:43:08;;;;;;;8.20;7.40;;;28.70;62.80;;;;;;5076138;28;20465;-61
2023/09/03 09:45:46;;;;;;;7.90;7.10;;;29.00;62.30;;;;;;5076174;28;20451;-61
2023/09/03 09:48:12;;;;;;;7.20;6.50;;;29.30;60.90;;;;;;5076167;28;20428;-61
2023/09/03 09:50:41;;;;;;;9.60;6.13;;;29.50;59.70;;;;;;5076014;28;20444;-61
2023/09/03 09:53:21;;;;;;;6.27;5.67;;;29.80;58.80;;;;;;5074674;28;20993;-62
2023/09/03 09:55:48;;;;;;;6.87;6.27;;;30.20;57.80;;;;;;5076379;28;20424;-61
2023/09/03 09:58:15;;;;;;;10.40;6.70;;;30.50;56.40;;;;;;5076128;28;20440;-61
2023/09/03 10:00:43;;;;;;;5.80;5.27;;;30.70;55.00;;;;;;5075987;28;20841;-61
2023/09/03 10:03:11;;;;;;;6.93;5.60;;;31.00;54.10;;;;;;5075839;28;20830;-61
2023/09/03 10:05:38;;;;;;;10.33;7.80;;;31.30;51.80;;;;;;5075921;28;20892;-61
2023/09/03 10:08:05;;;;;;;10.47;7.47;;;31.50;51.40;;;;;;5075533;28;20819;-61
2023/09/03 10:10:32;;;;;;;6.13;5.40;;;31.80;50.60;;;;;;5075654;28;20447;-61
2023/09/03 10:13:00;;;;;;;8.57;6.63;;;32.00;49.50;;;;;;5075650;28;20468;-61
2023/09/03 10:15:29;;;;;;;8.50;6.07;;;32.30;48.40;;;;;;5075674;28;20450;-61
2023/09/03 10:17:59;;;;;;;9.17;6.30;;;32.50;48.10;;;;;;5075663;28;20447;-61
2023/09/03 10:20:28;;;;;;;8.53;7.67;;;32.90;47.60;;;;;;5075616;28;20471;-61
2023/09/03 10:22:57;;;;;;;8.20;7.07;;;33.20;46.50;;;;;;5075184;28;20467;-61
2023/09/03 10:25:27;;;;;;;8.83;8.00;;;33.70;45.80;;;;;;5075471;28;20437;-61
2023/09/03 10:27:59;;;;;;;7.40;6.60;;;34.00;44.30;;;;;;5075104;28;20936;-61
2023/09/03 10:30:32;;;;;;;8.30;7.50;;;34.20;42.90;;;;;;5075468;28;20425;-61
2023/09/03 10:33:01;;;;;;;6.50;5.90;;;34.40;42.20;;;;;;5074990;28;20460;-61
2023/09/03 10:35:28;;;;;;;5.73;5.33;;;34.50;41.50;;;;;;5075379;28;20444;-61
2023/09/03 10:37:54;;;;;;;6.53;5.90;;;34.70;40.40;;;;;;5074893;28;20680;-61
2023/09/03 10:40:23;;;;;;;5.10;4.60;;;34.90;39.60;;;;;;5075150;28;20228;-61
2023/09/03 10:42:50;;;;;;;6.00;5.30;;;35.10;38.50;;;;;;5075135;28;20222;-61
2023/09/03 10:45:18;;;;;;;6.23;5.57;;;35.50;38.60;;;;;;5074885;28;20698;-61
2023/09/03 10:48:02;;;;;;;5.57;5.18;;;35.90;38.10;;;;;;5075129;28;20215;-61
2023/09/03 10:50:42;;;;;;;5.72;5.22;;;36.30;37.70;;;;;;5074990;28;20691;-61
2023/09/03 10:53:09;;;;;;;4.65;4.20;;;36.70;35.70;;;;;;5075013;28;20256;-61
2023/09/03 10:55:36;;;;;;;9.30;7.80;;;37.00;35.00;;;;;;5075438;28;20252;-61
2023/09/03 10:58:30;;;;;;;7.40;5.93;;;37.40;34.00;;;;;;5074873;28;20583;-61
2023/09/03 11:01:19;;;;;;;7.82;6.90;;;37.80;33.50;;;;;;5074804;28;20271;-61
2023/09/03 11:03:48;;;;;;;7.82;6.43;;;38.20;32.70;;;;;;5074397;28;20198;-62
2023/09/03 11:06:17;;;;;;;5.78;5.05;;;38.60;31.60;;;;;;5074759;28;20213;-61
2023/09/03 11:08:44;;;;;;;6.15;5.55;;;39.00;30.30;;;;;;5074626;28;20236;-62
2023/09/03 11:11:11;;;;;;;6.20;5.60;;;39.30;29.30;;;;;;5074477;28;20197;-61
2023/09/03 11:13:38;;;;;;;5.05;4.55;;;39.50;28.90;;;;;;5074649;28;20202;-61
2023/09/03 11:16:05;;;;;;;4.35;3.65;;;39.70;27.90;;;;;;5074142;28;20602;-62
2023/09/03 11:18:32;;;;;;;4.22;3.42;;;39.90;27.40;;;;;;5074189;28;20213;-61
2023/09/03 11:21:00;;;;;;;4.22;2.90;;;40.00;27.50;;;;;;5073956;28;20222;-62
2023/09/03 11:23:29;;;;;;;5.53;4.88;;;40.10;28.20;;;;;;5074318;28;20636;-62
2023/09/03 11:25:56;;;;;;;5.10;4.70;;;40.30;27.50;;;;;;5074206;28;20204;-62
2023/09/03 11:28:22;;;;;;;4.15;3.45;;;40.30;26.60;;;;;;5074438;28;20233;-61
2023/09/03 11:30:58;;;;;;;3.88;3.55;;;40.30;26.60;;;;;;5074109;28;20194;-61
2023/09/03 11:33:26;;;;;;;3.65;3.30;;;40.20;27.40;;;;;;5074085;28;20229;-61
2023/09/03 11:35:54;;;;;;;3.35;3.15;;;40.10;27.90;;;;;;5074316;28;20201;-61
2023/09/03 11:38:26;;;;;;;4.03;3.22;;;39.90;27.80;;;;;;5073741;28;20667;-61
2023/09/03 11:40:57;;;;;;;3.60;3.30;;;39.90;27.90;;;;;;5073999;28;20260;-61
2023/09/03 11:43:24;;;;;;;3.10;2.75;;;39.90;26.90;;;;;;5073885;28;20234;-61
2023/09/03 11:45:51;;;;;;;2.78;2.58;;;40.00;25.10;;;;;;5074510;28;20630;-61
2023/09/03 11:48:24;;;;;;;3.45;2.40;;;39.90;24.80;;;;;;5059551;28;20202;-61
2023/09/03 11:50:51;;;;;;;2.70;2.50;;;40.00;26.10;;;;;;5053812;28;20182;-61
2023/09/03 11:53:17;;;;;;;2.13;2.00;;;40.20;26.10;;;;;;5054033;28;20226;-61
2023/09/03 11:55:50;;;;;;;3.35;3.08;;;40.30;24.60;;;;;;5053767;28;20260;-61
2023/09/03 11:58:21;;;;;;;4.70;4.32;;;40.50;25.10;;;;;;5053796;28;20229;-61
2023/09/03 12:00:49;;;;;;;4.30;3.70;;;40.60;25.00;;;;;;5053360;28;20595;-61
2023/09/03 12:03:16;;;;;;;3.92;3.63;;;40.60;25.00;;;;;;5053411;28;20317;-62
2023/09/03 12:05:43;;;;;;;4.63;4.22;;;40.60;26.00;;;;;;5053726;28;20256;-62
2023/09/03 12:08:10;;;;;;;5.30;4.68;;;40.60;26.30;;;;;;5053554;28;20218;-62
2023/09/03 12:10:37;;;;;;;4.13;3.70;;;40.60;26.50;;;;;;5053417;28;20198;-62
2023/09/03 12:13:05;;;;;;;5.30;3.78;;;40.50;26.60;;;;;;5053338;28;20234;-62
2023/09/03 12:15:34;;;;;;;3.53;3.22;;;40.40;26.40;;;;;;5053116;28;20224;-62
2023/09/03 12:18:08;;;;;;;3.55;3.35;;;40.30;26.80;;;;;;5053695;28;20226;-62
2023/09/03 12:20:37;;;;;;;3.00;2.65;;;40.10;27.30;;;;;;5053430;28;20208;-62
2023/09/03 12:23:11;;;;;;;5.22;3.40;;;40.00;27.30;;;;;;5053111;28;20604;-61
2023/09/03 12:25:40;;;;;;;3.90;3.47;;;39.80;27.60;;;;;;5053327;28;20245;-61
2023/09/03 12:28:09;;;;;;;3.30;3.10;;;39.60;27.80;;;;;;5053606;28;20199;-61
2023/09/03 12:30:58;;;;;;;4.28;3.88;;;39.40;28.00;;;;;;5053332;28;20206;-61
2023/09/03 12:33:26;;;;;;;3.75;3.47;;;39.20;27.90;;;;;;5053139;28;20222;-61
2023/09/03 12:36:09;;;;;;;3.88;3.58;;;38.90;28.30;;;;;;5053269;28;20234;-61